Time;durP1;ratioP1;P1;durP2;ratioP2;P2;SDS_P1;SDS_P2;PMS_P1;PMS_P2;Temp;Humidity;BMP_temperature;BMP_pressure;BME280_temperature;BME280_humidity;BME280_pressure;Samples;Min_cycle;Max_cycle;Signal;HPM_P1;HPM_P2
2022/06/01 00:00:09;;;;;;;14.60;10.38;;;11.70;99.90;;;;;;5091488;28;20496;-67
2022/06/01 00:02:36;;;;;;;11.32;10.13;;;11.10;99.90;;;;;;5092849;28;20446;-66
2022/06/01 00:05:03;;;;;;;14.25;11.65;;;11.10;99.90;;;;;;5093050;28;20058;-67
2022/06/01 00:07:29;;;;;;;19.17;14.00;;;10.70;99.90;;;;;;5092818;28;20074;-67
2022/06/01 00:09:55;;;;;;;17.77;13.07;;;12.10;99.90;;;;;;5092754;28;20044;-66
2022/06/01 00:12:22;;;;;;;19.30;13.38;;;11.20;99.90;;;;;;5092570;28;20048;-67
2022/06/01 00:14:48;;;;;;;17.77;13.82;;;11.80;99.90;;;;;;5092475;28;20507;-67
2022/06/01 00:17:15;;;;;;;17.27;13.13;;;10.80;99.90;;;;;;5091875;28;20048;-66
2022/06/01 00:19:42;;;;;;;15.55;12.65;;;10.50;99.90;;;;;;5092748;28;20044;-66
2022/06/01 00:22:17;;;;;;;19.63;13.60;;;10.60;99.90;;;;;;5092770;28;20053;-66
2022/06/01 00:24:45;;;;;;;16.65;13.88;;;10.90;99.90;;;;;;5092772;28;20403;-67
2022/06/01 00:27:12;;;;;;;17.77;14.10;;;11.10;99.90;;;;;;5091437;28;20051;-67
2022/06/01 00:29:38;;;;;;;21.33;14.65;;;11.40;99.90;;;;;;5092405;28;20055;-66
2022/06/01 00:32:07;;;;;;;18.23;14.20;;;10.90;99.90;;;;;;5092496;28;20083;-65
2022/06/01 00:34:33;;;;;;;21.58;14.20;;;10.70;99.90;;;;;;5092825;28;20083;-67
2022/06/01 00:36:59;;;;;;;18.85;14.20;;;10.70;99.90;;;;;;5092428;28;20047;-66
2022/06/01 00:39:25;;;;;;;;;;;10.90;99.90;;;;;;5093115;28;20040;-66
2022/06/01 00:41:50;;;;;;;17.75;13.85;;;10.70;99.90;;;;;;5092202;28;19999;-67
2022/06/01 00:44:16;;;;;;;17.92;14.23;;;11.50;99.90;;;;;;5092512;28;20392;-66
2022/06/01 00:46:42;;;;;;;18.30;14.23;;;11.90;99.90;;;;;;5092506;28;20056;-67
2022/06/01 00:49:14;;;;;;;15.68;13.80;;;10.50;99.90;;;;;;5092587;28;20048;-67
2022/06/01 00:51:41;;;;;;;16.15;13.95;;;10.70;99.90;;;;;;5090981;28;20119;-67
2022/06/01 00:54:07;;;;;;;18.50;14.15;;;11.10;99.90;;;;;;5092398;28;20070;-66
2022/06/01 00:56:43;;;;;;;19.13;13.57;;;10.90;99.90;;;;;;5092460;28;20415;-67
2022/06/01 00:59:13;;;;;;;19.38;14.65;;;10.70;99.90;;;;;;5092336;28;20047;-67
2022/06/01 01:01:39;;;;;;;16.98;15.02;;;10.40;99.90;;;;;;5092411;28;20123;-67
2022/06/01 01:04:05;;;;;;;;;;;10.80;99.90;;;;;;5092597;28;20080;-67
2022/06/01 01:06:39;;;;;;;18.02;13.80;;;11.50;99.90;;;;;;5092412;28;20355;-67
2022/06/01 01:09:07;;;;;;;17.98;15.00;;;10.50;99.90;;;;;;5091962;28;20044;-67
2022/06/01 01:11:50;;;;;;;19.80;16.15;;;10.70;99.90;;;;;;5092162;28;20044;-67
2022/06/01 01:14:22;;;;;;;23.13;16.05;;;10.60;99.90;;;;;;5092244;28;20048;-67
2022/06/01 01:16:49;;;;;;;17.75;15.23;;;11.10;99.90;;;;;;5092083;28;20101;-67
2022/06/01 01:19:34;;;;;;;20.00;15.80;;;11.20;99.90;;;;;;5091968;28;20040;-66
2022/06/01 01:22:10;;;;;;;18.50;15.35;;;10.80;99.90;;;;;;5091960;28;20036;-67
2022/06/01 01:25:15;;;;;;;22.73;15.60;;;10.40;99.90;;;;;;5092167;28;20048;-66
2022/06/01 01:27:41;;;;;;;19.73;16.60;;;10.80;99.90;;;;;;5092204;28;20108;-67
2022/06/01 01:30:33;;;;;;;20.50;15.68;;;10.60;99.90;;;;;;5091725;28;20052;-66
2022/06/01 01:33:22;;;;;;;20.17;15.88;;;11.30;99.90;;;;;;5090551;28;20060;-67
2022/06/01 01:35:52;;;;;;;20.73;15.43;;;10.60;99.90;;;;;;5091568;28;20052;-67
2022/06/01 01:38:43;;;;;;;19.02;16.50;;;10.60;99.90;;;;;;5091799;28;20559;-67
2022/06/01 01:41:32;;;;;;;20.50;17.75;;;10.40;99.90;;;;;;5092038;28;20092;-67
2022/06/01 01:44:13;;;;;;;23.17;18.10;;;10.40;99.90;;;;;;5091881;28;20137;-68
2022/06/01 01:46:39;;;;;;;23.35;19.10;;;10.50;99.90;;;;;;5091595;28;20470;-67
2022/06/01 01:49:05;;;;;;;;;;;10.70;99.90;;;;;;5092420;28;20395;-67
2022/06/01 01:51:32;;;;;;;22.35;18.73;;;10.70;99.90;;;;;;5091704;28;19927;-67
2022/06/01 01:54:02;;;;;;;22.50;18.77;;;10.50;99.90;;;;;;5093273;28;20048;-67
2022/06/01 01:56:39;;;;;;;26.50;19.88;;;10.40;99.90;;;;;;5095230;28;20036;-66
2022/06/01 01:59:24;;;;;;;20.60;17.23;;;10.70;99.90;;;;;;5095387;28;20150;-67
2022/06/01 02:02:10;;;;;;;23.75;19.05;;;10.30;99.90;;;;;;5094495;28;20047;-66
2022/06/01 02:07:46;;;;;;;24.58;20.02;;;11.20;99.90;;;;;;5094959;28;20052;-66
2022/06/01 02:12:57;;;;;;;27.25;20.40;;;10.60;99.90;;;;;;5095025;28;20193;-67
2022/06/01 02:15:33;;;;;;;26.40;19.40;;;10.60;99.90;;;;;;5094957;28;20044;-66
2022/06/01 02:18:05;;;;;;;24.60;19.30;;;10.80;99.90;;;;;;5093828;28;20056;-68
2022/06/01 02:20:34;;;;;;;25.45;19.95;;;10.30;99.90;;;;;;5095043;28;20046;-67
2022/06/01 02:23:01;;;;;;;25.70;20.25;;;10.40;99.90;;;;;;5094851;28;20040;-68
2022/06/01 02:25:29;;;;;;;27.80;19.85;;;11.80;99.90;;;;;;5094794;28;20050;-67
2022/06/01 02:27:57;;;;;;;29.13;20.17;;;10.50;99.90;;;;;;5094778;28;20123;-67
2022/06/01 02:30:24;;;;;;;23.45;19.08;;;11.10;99.90;;;;;;5094429;28;20534;-67
2022/06/01 02:32:53;;;;;;;24.55;19.95;;;10.10;99.90;;;;;;5095010;28;20156;-66
2022/06/01 02:35:22;;;;;;;25.95;19.83;;;10.20;99.90;;;;;;5094481;28;20131;-67
2022/06/01 02:37:51;;;;;;;27.38;21.23;;;10.40;99.90;;;;;;5094542;28;20063;-67
2022/06/01 02:40:20;;;;;;;31.55;22.15;;;10.40;99.90;;;;;;5094248;28;20479;-67
2022/06/01 02:42:51;;;;;;;24.85;19.75;;;10.30;99.90;;;;;;5094276;28;20056;-67
2022/06/01 02:45:25;;;;;;;27.10;21.73;;;11.50;99.90;;;;;;5094654;28;20093;-67
2022/06/01 02:47:54;;;;;;;28.20;21.10;;;10.40;99.90;;;;;;5094248;28;20483;-66
2022/06/01 02:50:23;;;;;;;30.75;21.70;;;10.80;99.90;;;;;;5094474;28;20036;-66
2022/06/01 02:52:50;;;;;;;25.15;19.75;;;11.80;99.90;;;;;;5094445;28;20056;-67
2022/06/01 02:55:17;;;;;;;25.13;19.45;;;11.40;99.90;;;;;;5094225;28;20137;-67
2022/06/01 02:57:44;;;;;;;23.38;19.05;;;10.40;99.90;;;;;;5093964;28;20064;-67
2022/06/01 03:00:26;;;;;;;26.20;20.63;;;10.60;99.90;;;;;;5094226;28;20042;-66
2022/06/01 03:02:57;;;;;;;26.50;20.67;;;10.30;99.90;;;;;;5094165;28;20083;-67
2022/06/01 03:05:29;;;;;;;25.50;20.30;;;11.80;99.90;;;;;;5094174;28;20048;-66
2022/06/01 03:07:55;;;;;;;24.30;19.35;;;11.60;99.90;;;;;;5094144;28;20056;-67
2022/06/01 03:10:22;;;;;;;24.55;17.92;;;10.30;99.90;;;;;;5093971;28;20043;-67
2022/06/01 03:12:47;;;;;;;23.42;19.40;;;11.70;99.90;;;;;;5094108;28;20082;-67
2022/06/01 03:15:17;;;;;;;27.80;21.83;;;10.90;99.90;;;;;;5093701;28;20080;-67
2022/06/01 03:17:43;;;;;;;26.65;20.75;;;10.60;99.90;;;;;;5093653;28;20048;-67
2022/06/01 03:20:11;;;;;;;26.58;20.55;;;10.10;99.90;;;;;;5093671;28;20571;-67
2022/06/01 03:22:39;;;;;;;29.88;20.83;;;10.50;99.90;;;;;;5093468;28;20114;-67
2022/06/01 03:25:09;;;;;;;26.55;21.05;;;10.60;99.90;;;;;;5093747;28;20456;-67
2022/06/01 03:27:35;;;;;;;25.02;21.10;;;10.30;99.90;;;;;;5093671;28;20083;-68
2022/06/01 03:30:02;;;;;;;26.10;20.95;;;10.40;99.90;;;;;;5092329;28;20052;-67
2022/06/01 03:32:28;;;;;;;33.22;23.20;;;10.60;99.90;;;;;;5093326;28;20055;-67
2022/06/01 03:34:54;;;;;;;27.92;21.38;;;10.60;99.90;;;;;;5093416;28;20043;-67
2022/06/01 03:37:20;;;;;;;25.13;20.50;;;10.80;99.90;;;;;;5093535;28;20476;-68
2022/06/01 03:39:46;;;;;;;30.83;22.92;;;10.20;99.90;;;;;;5093300;28;20131;-67
2022/06/01 03:42:12;;;;;;;37.30;23.92;;;10.30;99.90;;;;;;5109159;28;20048;-67
2022/06/01 03:47:21;;;;;;;30.05;24.10;;;10.80;99.90;;;;;;5093117;28;20564;-67
2022/06/01 03:49:47;;;;;;;27.98;22.75;;;11.10;99.90;;;;;;5093189;28;20044;-67
2022/06/01 03:52:13;;;;;;;28.55;23.60;;;10.50;99.90;;;;;;5093251;28;20052;-67
2022/06/01 03:54:39;;;;;;;30.88;23.20;;;11.20;99.90;;;;;;5093194;28;20464;-67
2022/06/01 03:57:07;;;;;;;30.77;24.08;;;10.50;99.90;;;;;;5092919;28;20573;-68
2022/06/01 03:59:34;;;;;;;29.92;22.55;;;10.30;99.90;;;;;;5093006;28;20051;-67
2022/06/01 04:02:01;;;;;;;28.33;23.00;;;11.40;99.90;;;;;;5092889;28;20499;-68
2022/06/01 04:04:27;;;;;;;26.60;23.02;;;10.70;99.90;;;;;;5092749;28;20444;-67
2022/06/01 04:06:53;;;;;;;;;;;10.60;99.90;;;;;;5093201;28;20051;-67
2022/06/01 04:09:18;;;;;;;28.63;22.52;;;10.30;99.90;;;;;;5092981;28;19920;-67
2022/06/01 04:11:44;;;;;;;28.80;23.13;;;10.50;99.90;;;;;;5092600;28;20080;-67
2022/06/01 04:14:10;;;;;;;34.03;25.13;;;10.10;99.90;;;;;;5092745;28;20070;-67
2022/06/01 04:16:35;;;;;;;32.08;24.20;;;10.80;99.90;;;;;;5092171;28;20649;-67
2022/06/01 04:19:01;;;;;;;30.70;24.60;;;10.60;99.90;;;;;;5092450;28;20478;-67
2022/06/01 04:21:29;;;;;;;35.10;24.90;;;10.60;99.90;;;;;;5092734;28;20052;-67
2022/06/01 04:24:00;;;;;;;31.52;24.75;;;10.30;99.90;;;;;;5092596;28;20555;-67
2022/06/01 04:26:26;;;;;;;28.83;23.92;;;10.60;99.90;;;;;;5092691;28;20070;-67
2022/06/01 04:28:53;;;;;;;32.40;23.77;;;11.00;99.90;;;;;;5092600;28;20048;-67
2022/06/01 04:31:18;;;;;;;29.92;24.85;;;11.50;99.90;;;;;;5092428;28;20056;-67
2022/06/01 04:33:44;;;;;;;28.90;24.02;;;10.60;99.90;;;;;;5092360;28;20051;-67
2022/06/01 04:36:10;;;;;;;31.48;23.00;;;10.70;99.90;;;;;;5092593;28;20047;-67
2022/06/01 04:38:36;;;;;;;35.42;25.10;;;10.80;99.90;;;;;;5092317;28;20044;-67
2022/06/01 04:41:02;;;;;;;30.65;24.88;;;10.50;99.90;;;;;;5092459;28;20080;-67
2022/06/01 04:43:27;;;;;;;27.70;23.40;;;10.50;99.90;;;;;;5091442;28;20040;-67
2022/06/01 04:45:55;;;;;;;33.28;24.15;;;10.40;99.90;;;;;;5092365;28;20117;-67
2022/06/01 04:48:22;;;;;;;33.40;23.98;;;12.10;99.90;;;;;;5092388;28;20527;-69
2022/06/01 04:50:48;;;;;;;30.48;24.77;;;11.30;99.90;;;;;;5092094;28;20044;-67
2022/06/01 04:53:15;;;;;;;;;;;11.10;99.90;;;;;;5092668;28;20052;-67
2022/06/01 04:55:42;;;;;;;29.35;24.20;;;11.40;99.90;;;;;;5092346;28;19920;-67
2022/06/01 04:58:08;;;;;;;32.72;24.92;;;10.80;99.90;;;;;;5108171;28;20048;-67
2022/06/01 05:00:34;;;;;;;34.72;26.02;;;11.00;99.90;;;;;;5092185;28;20048;-67
2022/06/01 05:03:01;;;;;;;28.65;23.02;;;11.90;99.90;;;;;;5092232;28;20040;-67
2022/06/01 05:05:27;;;;;;;;;;;11.20;99.90;;;;;;5092820;28;20052;-67
2022/06/01 05:07:53;;;;;;;25.00;21.00;;;11.40;99.90;;;;;;5092136;28;20394;-67
2022/06/01 05:10:21;;;;;;;27.83;19.50;;;11.40;99.90;;;;;;5092095;28;20076;-67
2022/06/01 05:12:47;;;;;;;25.45;19.50;;;12.20;99.90;;;;;;5092021;28;20098;-67
2022/06/01 05:15:13;;;;;;;25.25;19.63;;;12.30;99.90;;;;;;5091897;28;20079;-67
2022/06/01 05:17:38;;;;;;;;;;;11.30;99.90;;;;;;5092687;28;20044;-67
2022/06/01 05:20:05;;;;;;;23.33;19.20;;;11.50;99.90;;;;;;5092169;28;19920;-67
2022/06/01 05:22:31;;;;;;;24.13;18.75;;;11.70;99.90;;;;;;5092119;28;20059;-67
2022/06/01 05:24:56;;;;;;;23.63;18.15;;;11.40;99.90;;;;;;5091952;28;20048;-67
2022/06/01 05:27:22;;;;;;;19.58;17.40;;;13.00;99.90;;;;;;5090776;28;20044;-67
2022/06/01 05:29:48;;;;;;;18.35;15.98;;;11.80;99.90;;;;;;5094403;28;20051;-68
2022/06/01 05:32:14;;;;;;;17.67;13.05;;;11.90;99.90;;;;;;5095980;28;20052;-67
2022/06/01 05:34:40;;;;;;;16.00;12.95;;;12.00;99.90;;;;;;5095864;28;20051;-67
2022/06/01 05:37:05;;;;;;;15.05;13.45;;;13.00;99.90;;;;;;5095691;28;20177;-67
2022/06/01 05:39:31;;;;;;;13.18;11.50;;;12.10;99.90;;;;;;5095702;28;20130;-68
2022/06/01 05:41:57;;;;;;;15.45;12.02;;;12.00;99.90;;;;;;5095505;28;20148;-67
2022/06/01 05:44:22;;;;;;;18.55;13.48;;;12.60;99.90;;;;;;5095481;28;20048;-67
2022/06/01 05:46:56;;;;;;;18.02;13.38;;;12.40;99.90;;;;;;5095438;28;20040;-68
2022/06/01 05:49:22;;;;;;;18.38;14.52;;;12.20;99.90;;;;;;5095579;28;20044;-67
2022/06/01 05:51:48;;;;;;;18.42;16.52;;;12.50;99.90;;;;;;5087802;28;20058;-67
2022/06/01 05:54:14;;;;;;;;;;;12.40;99.90;;;;;;5112630;28;20503;-67
2022/06/01 05:56:39;;;;;;;20.45;15.00;;;12.50;99.90;;;;;;5114323;28;19919;-67
2022/06/01 05:59:05;;;;;;;16.08;14.15;;;12.80;99.90;;;;;;5112225;28;20150;-69
2022/06/01 06:01:31;;;;;;;16.13;14.00;;;13.00;99.90;;;;;;5114382;28;20053;-67
2022/06/01 06:03:56;;;;;;;15.70;13.38;;;12.60;99.90;;;;;;5114091;28;20143;-71
2022/06/01 06:06:23;;;;;;;19.33;15.77;;;12.50;99.90;;;;;;5112179;28;20052;-66
2022/06/01 06:09:02;;;;;;;19.70;15.40;;;12.40;99.90;;;;;;5112347;28;20129;-67
2022/06/01 06:11:31;;;;;;;20.48;16.48;;;12.70;99.90;;;;;;5112810;28;20528;-68
2022/06/01 06:13:58;;;;;;;21.35;15.55;;;12.50;99.90;;;;;;5112729;28;20066;-71
2022/06/01 06:16:25;;;;;;;10.23;9.02;;;12.50;99.90;;;;;;5113147;28;20143;-69
2022/06/01 06:18:51;;;;;;;8.90;7.15;;;12.40;99.90;;;;;;5112939;28;20066;-67
2022/06/01 06:21:17;;;;;;;9.10;5.15;;;12.20;99.90;;;;;;5113093;28;20104;-68
2022/06/01 06:23:43;;;;;;;;;;;12.00;99.90;;;;;;5114320;28;20040;-69
2022/06/01 06:26:09;;;;;;;7.53;5.30;;;12.00;99.90;;;;;;5110781;28;19919;-68
2022/06/01 06:28:35;;;;;;;11.18;6.05;;;12.00;99.90;;;;;;5113514;28;20130;-68
2022/06/01 06:31:02;;;;;;;14.60;5.55;;;11.10;99.90;;;;;;5113352;28;20052;-68
2022/06/01 06:33:28;;;;;;;8.63;6.55;;;11.80;99.90;;;;;;5113683;28;20051;-70
2022/06/01 06:36:05;;;;;;;8.40;6.40;;;11.60;99.90;;;;;;5111258;28;20054;-68
2022/06/01 06:38:32;;;;;;;;;;;11.10;99.90;;;;;;5113792;28;20092;-68
2022/06/01 06:40:59;;;;;;;11.75;9.00;;;11.80;99.90;;;;;;5112910;28;19930;-67
2022/06/01 06:43:26;;;;;;;14.63;10.88;;;10.80;99.90;;;;;;5113132;28;20053;-66
2022/06/01 06:45:57;;;;;;;16.58;12.48;;;10.80;99.90;;;;;;5111816;28;20051;-65
2022/06/01 06:48:22;;;;;;;16.50;12.02;;;11.00;99.90;;;;;;5113719;28;20048;-65
2022/06/01 06:50:48;;;;;;;23.10;13.60;;;10.80;99.90;;;;;;5112961;28;20039;-65
2022/06/01 06:53:14;;;;;;;17.73;11.60;;;10.60;99.90;;;;;;5108035;28;20055;-64
2022/06/01 06:55:40;;;;;;;13.07;10.82;;;10.70;99.90;;;;;;5092626;28;20110;-65
2022/06/01 06:58:08;;;;;;;16.88;12.02;;;11.50;99.90;;;;;;5093568;28;20047;-64
2022/06/01 07:00:34;;;;;;;14.90;11.52;;;10.50;99.90;;;;;;5094164;28;20044;-65
2022/06/01 07:02:59;;;;;;;20.35;13.25;;;10.80;99.90;;;;;;5094124;28;20096;-64
2022/06/01 07:08:09;;;;;;;15.82;9.60;;;10.60;99.90;;;;;;5094170;28;20059;-65
2022/06/01 07:10:35;;;;;;;11.25;8.80;;;10.80;99.90;;;;;;5093890;28;20040;-65
2022/06/01 07:13:00;;;;;;;11.23;9.27;;;11.50;99.90;;;;;;5093907;28;20496;-64
2022/06/01 07:15:26;;;;;;;11.35;8.98;;;10.70;99.90;;;;;;5093714;28;20400;-65
2022/06/01 07:17:52;;;;;;;13.82;9.73;;;11.30;99.90;;;;;;5093595;28;20052;-65
2022/06/01 07:20:18;;;;;;;11.48;7.55;;;11.70;99.90;;;;;;5093651;28;20044;-66
2022/06/01 07:22:44;;;;;;;9.07;5.50;;;11.00;99.90;;;;;;5093758;28;20058;-65
2022/06/01 07:25:10;;;;;;;9.85;5.68;;;10.90;99.90;;;;;;5092783;28;20052;-66
2022/06/01 07:27:36;;;;;;;8.05;6.50;;;11.40;99.90;;;;;;5093647;28;20044;-66
2022/06/01 07:30:04;;;;;;;6.95;6.20;;;11.00;99.90;;;;;;5107395;28;20039;-66
2022/06/01 07:32:30;;;;;;;8.90;7.18;;;11.20;99.90;;;;;;5113103;28;20112;-66
2022/06/01 07:34:56;;;;;;;7.90;6.68;;;11.20;99.90;;;;;;5113958;28;20052;-67
2022/06/01 07:43:06;;;;;;;9.20;8.30;;;11.40;99.90;;;;;;5113695;28;20169;-68
2022/06/01 07:45:36;;;;;;;11.25;9.23;;;12.30;99.90;;;;;;5113076;28;20050;-68
2022/06/01 07:48:06;;;;;;;10.15;8.80;;;11.40;99.90;;;;;;5112898;28;20364;-67
2022/06/01 07:50:33;;;;;;;7.70;6.78;;;11.70;99.90;;;;;;5111182;28;20047;-67
2022/06/01 07:53:00;;;;;;;7.22;5.90;;;12.10;99.90;;;;;;5110632;28;20665;-67
2022/06/01 07:55:26;;;;;;;7.20;6.53;;;11.70;99.90;;;;;;5111868;28;20043;-67
2022/06/01 07:57:52;;;;;;;8.10;6.40;;;12.00;99.90;;;;;;5113248;28;20048;-67
2022/06/01 08:00:18;;;;;;;7.07;6.47;;;12.30;99.90;;;;;;5113241;28;20093;-67
2022/06/01 08:02:43;;;;;;;;;;;12.10;99.90;;;;;;5113712;28;20047;-67
2022/06/01 08:05:10;;;;;;;4.55;4.15;;;12.10;99.90;;;;;;5113367;28;20021;-68
2022/06/01 08:07:36;;;;;;;4.43;3.90;;;12.60;99.90;;;;;;5113115;27;20040;-68
2022/06/01 08:10:03;;;;;;;3.47;3.17;;;12.30;99.90;;;;;;5113054;28;20040;-67
2022/06/01 08:15:13;;;;;;;3.25;2.90;;;12.30;99.90;;;;;;5113177;28;20435;-67
2022/06/01 08:17:41;;;;;;;5.90;5.40;;;12.50;99.90;;;;;;5113195;28;20035;-68
2022/06/01 08:20:08;;;;;;;6.05;5.43;;;12.60;99.90;;;;;;5112928;28;20100;-68
2022/06/01 08:22:33;;;;;;;4.28;3.75;;;12.60;99.90;;;;;;5112890;28;20495;-67
2022/06/01 08:24:59;;;;;;;6.22;5.63;;;12.70;99.90;;;;;;5102732;28;20108;-72
2022/06/01 08:27:25;;;;;;;6.65;6.00;;;12.80;99.90;;;;;;5103266;28;20055;-71
2022/06/01 08:29:50;;;;;;;9.05;7.75;;;12.40;99.90;;;;;;5108765;28;20039;-68
2022/06/01 08:32:16;;;;;;;8.05;6.32;;;12.90;99.90;;;;;;5111188;28;20533;-69
2022/06/01 08:34:42;;;;;;;9.00;7.32;;;13.00;99.90;;;;;;5111207;28;20042;-72
2022/06/01 08:37:07;;;;;;;7.68;5.30;;;14.10;99.90;;;;;;5109715;28;20147;-70
2022/06/01 08:39:33;;;;;;;6.55;5.25;;;13.30;99.90;;;;;;5111430;28;20059;-67
2022/06/01 08:42:02;;;;;;;6.32;5.72;;;13.10;99.90;;;;;;5109453;28;20058;-71
2022/06/01 08:44:34;;;;;;;6.72;6.03;;;13.40;99.90;;;;;;5111625;28;20049;-68
2022/06/01 08:47:08;;;;;;;6.45;5.80;;;14.20;99.90;;;;;;5110037;28;20448;-69
2022/06/01 08:49:36;;;;;;;8.52;6.18;;;13.40;99.90;;;;;;5110661;28;20499;-73
2022/06/01 08:52:04;;;;;;;7.18;5.32;;;13.60;99.90;;;;;;5111380;28;20119;-72
2022/06/01 08:54:29;;;;;;;8.93;5.32;;;13.30;99.90;;;;;;5111377;28;20169;-74
2022/06/01 08:57:01;;;;;;;7.47;5.85;;;13.30;99.90;;;;;;5109330;28;20118;-70
2022/06/01 08:59:49;;;;;;;6.68;5.55;;;13.30;99.90;;;;;;5111339;28;20043;-70
2022/06/01 09:02:34;;;;;;;9.40;6.22;;;13.80;99.90;;;;;;5108439;28;20062;-68
2022/06/01 09:05:14;;;;;;;7.60;6.05;;;13.50;99.90;;;;;;5115484;28;20055;-67
2022/06/01 09:07:51;;;;;;;6.82;5.97;;;13.60;99.90;;;;;;5113402;28;20075;-66
2022/06/01 09:10:32;;;;;;;;;;;13.60;99.90;;;;;;5115020;28;20380;-68
2022/06/01 09:13:30;;;;;;;6.50;5.90;;;13.40;99.90;;;;;;5114671;28;20329;-69
2022/06/01 09:16:07;;;;;;;6.55;5.70;;;13.90;99.90;;;;;;5113477;28;20053;-69
2022/06/01 09:18:40;;;;;;;7.28;5.38;;;15.20;99.90;;;;;;5114857;28;20058;-69
2022/06/01 09:24:03;;;;;;;7.00;5.57;;;14.20;99.90;;;;;;5111313;28;20141;-69
2022/06/01 09:26:29;;;;;;;5.60;4.82;;;14.30;99.90;;;;;;5112956;28;20512;-68
2022/06/01 09:28:56;;;;;;;;;;;14.30;99.90;;;;;;5115322;28;20051;-68
2022/06/01 09:31:39;;;;;;;;;;;14.20;99.90;;;;;;5115472;28;19920;-68
2022/06/01 09:34:19;;;;;;;6.38;4.78;;;14.30;99.90;;;;;;5114547;28;20051;-66
2022/06/01 09:36:55;;;;;;;5.78;4.78;;;14.90;99.90;;;;;;5113406;28;20555;-68
2022/06/01 09:39:21;;;;;;;;;;;14.90;99.90;;;;;;5114999;28;20150;-69
2022/06/01 09:41:47;;;;;;;4.40;4.00;;;15.10;99.90;;;;;;5114478;28;20359;-69
2022/06/01 09:44:18;;;;;;;;;;;15.40;99.90;;;;;;5115103;28;20141;-68
2022/06/01 09:46:47;;;;;;;5.95;4.05;;;15.00;99.90;;;;;;5108823;28;20038;-66
2022/06/01 09:49:29;;;;;;;4.32;3.92;;;15.20;99.90;;;;;;5114678;28;20051;-66
2022/06/01 09:52:02;;;;;;;5.15;3.85;;;14.10;99.90;;;;;;5109758;28;20044;-68
2022/06/01 09:54:34;;;;;;;4.38;2.90;;;15.00;99.90;;;;;;5113608;28;20101;-67
2022/06/01 09:57:26;;;;;;;3.38;2.83;;;14.90;99.90;;;;;;5112657;28;20422;-68
2022/06/01 10:08:23;;;;;;;5.70;3.13;;;14.80;99.90;;;;;;5112565;28;20044;-69
2022/06/01 10:11:03;;;;;;;3.63;3.08;;;15.20;99.90;;;;;;5113272;28;21244;-67
2022/06/01 10:13:34;;;;;;;5.43;2.67;;;15.50;99.90;;;;;;5114004;28;20046;-66
2022/06/01 10:16:12;;;;;;;4.05;2.40;;;15.70;99.90;;;;;;5110301;28;20044;-70
2022/06/01 10:18:41;;;;;;;3.45;2.25;;;16.20;99.90;;;;;;5114044;28;20048;-67
2022/06/01 10:21:11;;;;;;;4.57;3.17;;;15.80;99.90;;;;;;5113101;28;20094;-66
2022/06/01 10:23:40;;;;;;;5.45;2.55;;;15.90;99.90;;;;;;5113662;27;20059;-67
2022/06/01 10:26:30;;;;;;;4.55;2.08;;;16.20;99.90;;;;;;5111612;28;20105;-67
2022/06/01 10:29:05;;;;;;;5.32;2.60;;;16.00;99.90;;;;;;5112771;28;20119;-67
2022/06/01 10:31:37;;;;;;;3.42;1.98;;;15.50;99.90;;;;;;5109021;28;20142;-66
2022/06/01 10:34:13;;;;;;;3.10;1.60;;;15.40;99.90;;;;;;5113604;28;20052;-66
2022/06/01 10:36:45;;;;;;;1.65;1.52;;;15.20;99.90;;;;;;5112124;28;20504;-66
2022/06/01 10:39:33;;;;;;;2.63;1.45;;;14.90;99.90;;;;;;5112862;27;20101;-67
2022/06/01 10:42:16;;;;;;;1.70;1.60;;;14.50;99.90;;;;;;5113786;28;20376;-67
2022/06/01 10:44:53;;;;;;;1.52;1.25;;;15.00;99.90;;;;;;5102240;28;20200;-67
2022/06/01 10:47:30;;;;;;;2.45;1.77;;;14.60;99.90;;;;;;5114470;28;20047;-67
2022/06/01 10:50:09;;;;;;;4.03;1.60;;;14.70;99.90;;;;;;5114793;28;20096;-67
2022/06/01 10:52:41;;;;;;;1.70;1.50;;;14.30;99.90;;;;;;5114733;28;20050;-67
2022/06/01 10:55:21;;;;;;;3.53;1.60;;;14.30;99.90;;;;;;5114587;28;20104;-67
2022/06/01 10:57:49;;;;;;;1.73;1.40;;;14.30;99.90;;;;;;5114763;28;20182;-67
2022/06/01 11:00:21;;;;;;;2.15;1.70;;;14.50;99.90;;;;;;5114499;28;20498;-68
2022/06/01 11:02:55;;;;;;;4.10;1.70;;;14.40;99.90;;;;;;5114608;28;20050;-67
2022/06/01 11:05:59;;;;;;;2.67;1.80;;;15.20;99.90;;;;;;5114466;28;20055;-67
2022/06/01 11:08:42;;;;;;;3.25;2.45;;;14.90;99.90;;;;;;5114473;28;20047;-67
2022/06/01 11:11:27;;;;;;;3.40;2.42;;;14.90;99.90;;;;;;5114377;28;20039;-67
2022/06/01 11:14:11;;;;;;;3.13;2.83;;;15.20;99.90;;;;;;5114232;28;20050;-66
2022/06/01 11:17:20;;;;;;;2.55;2.20;;;15.00;99.90;;;;;;5114340;28;20559;-67
2022/06/01 11:20:23;;;;;;;2.97;2.35;;;15.50;99.90;;;;;;5091392;28;20067;-67
2022/06/01 11:23:08;;;;;;;4.47;2.25;;;15.80;99.90;;;;;;5114079;28;20111;-66
2022/06/01 11:25:44;;;;;;;2.40;2.03;;;15.60;99.90;;;;;;5114112;28;20126;-66
2022/06/01 11:28:10;;;;;;;4.13;2.25;;;16.00;99.90;;;;;;5114108;28;20043;-67
2022/06/01 11:30:38;;;;;;;;;;;17.00;99.90;;;;;;5114229;28;20142;-68
2022/06/01 11:33:19;;;;;;;2.97;1.80;;;16.40;99.90;;;;;;5114040;28;19974;-67
2022/06/01 11:36:00;;;;;;;2.92;1.80;;;17.00;99.90;;;;;;5113728;28;20567;-67
2022/06/01 11:38:40;;;;;;;2.60;1.67;;;17.00;99.90;;;;;;5113669;28;20495;-68
2022/06/01 11:41:12;;;;;;;2.75;1.90;;;17.40;99.90;;;;;;5113750;28;20039;-67
2022/06/01 11:43:47;;;;;;;2.15;1.50;;;17.70;99.90;;;;;;5113783;28;20043;-67
2022/06/01 11:46:45;;;;;;;4.75;1.20;;;18.40;99.90;;;;;;5113860;28;20048;-66
2022/06/01 11:49:39;;;;;;;2.38;1.42;;;18.00;99.90;;;;;;5101901;28;20108;-68
2022/06/01 11:52:22;;;;;;;3.88;1.50;;;18.60;99.90;;;;;;5113553;28;20040;-68
2022/06/01 11:55:28;;;;;;;1.98;1.50;;;18.10;99.90;;;;;;5113403;28;20043;-66
2022/06/01 11:58:04;;;;;;;2.95;1.30;;;17.90;99.90;;;;;;5113358;28;20047;-66
2022/06/01 12:00:48;;;;;;;2.72;1.40;;;17.40;99.90;;;;;;5113578;28;20071;-70
2022/06/01 12:03:19;;;;;;;2.30;1.50;;;17.30;99.90;;;;;;5113579;28;20047;-66
2022/06/01 12:06:12;;;;;;;1.70;1.20;;;16.60;99.90;;;;;;5113224;28;20051;-65
2022/06/01 12:08:53;;;;;;;3.50;1.40;;;16.40;99.90;;;;;;5113485;28;20067;-66
2022/06/01 12:11:40;;;;;;;2.22;1.23;;;16.50;99.90;;;;;;5113247;28;20127;-66
2022/06/01 12:14:56;;;;;;;3.03;1.50;;;17.20;99.90;;;;;;5113152;28;20050;-68
2022/06/01 12:17:34;;;;;;;2.08;1.88;;;16.70;99.90;;;;;;5113373;28;20043;-66
2022/06/01 12:20:11;;;;;;;1.58;1.30;;;17.40;99.90;;;;;;5113292;28;20461;-66
2022/06/01 12:28:48;;;;;;;1.10;1.00;;;17.30;99.90;;;;;;5112899;28;20051;-67
2022/06/01 12:31:21;;;;;;;1.33;1.00;;;17.30;99.90;;;;;;5112645;28;20064;-67
2022/06/01 12:34:37;;;;;;;1.20;0.93;;;17.20;99.90;;;;;;5113104;28;20077;-67
2022/06/01 12:37:08;;;;;;;1.20;1.00;;;17.10;99.90;;;;;;5099612;28;20495;-64
2022/06/01 12:39:40;;;;;;;1.63;1.10;;;17.30;99.90;;;;;;5109445;28;20052;-65
2022/06/01 12:42:30;;;;;;;0.88;0.88;;;17.50;99.90;;;;;;5112868;28;20043;-67
2022/06/01 12:44:58;;;;;;;1.73;1.00;;;17.60;99.90;;;;;;5112634;28;20077;-66
2022/06/01 12:47:37;;;;;;;1.50;0.90;;;17.60;99.90;;;;;;5112576;28;20088;-67
2022/06/01 12:50:09;;;;;;;1.02;1.00;;;17.30;99.90;;;;;;5112475;28;20472;-67
2022/06/01 12:52:35;;;;;;;1.65;0.88;;;17.30;99.90;;;;;;5112448;28;20130;-67
2022/06/01 12:55:07;;;;;;;0.80;0.80;;;17.10;99.90;;;;;;5112577;28;20559;-67
2022/06/01 12:57:39;;;;;;;3.67;2.15;;;17.40;99.90;;;;;;5112630;28;20048;-66
2022/06/01 13:00:21;;;;;;;2.53;1.60;;;17.70;99.90;;;;;;5111493;28;20448;-67
2022/06/01 13:02:46;;;;;;;2.30;1.90;;;17.40;99.90;;;;;;5111068;28;20043;-67
2022/06/01 13:05:25;;;;;;;2.50;1.55;;;17.20;99.90;;;;;;5112720;28;20044;-69
2022/06/01 13:07:56;;;;;;;2.55;1.80;;;17.70;99.90;;;;;;5112630;28;20048;-68
2022/06/01 13:10:28;;;;;;;3.15;1.50;;;17.60;99.90;;;;;;5112299;28;20048;-66
2022/06/01 13:13:14;;;;;;;2.53;1.60;;;17.90;99.90;;;;;;5112374;28;20066;-68
2022/06/01 13:15:43;;;;;;;2.47;1.20;;;17.70;99.90;;;;;;5112324;28;20046;-69
2022/06/01 13:18:18;;;;;;;1.45;1.20;;;18.00;99.90;;;;;;5112350;28;20043;-67
2022/06/01 13:21:00;;;;;;;2.13;0.95;;;17.80;99.90;;;;;;5112341;28;20118;-68
2022/06/01 13:23:44;;;;;;;2.28;1.08;;;18.00;99.90;;;;;;5111983;28;20036;-68
2022/06/01 13:26:13;;;;;;;1.63;0.80;;;17.80;99.90;;;;;;5112398;28;20108;-69
2022/06/01 13:28:39;;;;;;;1.77;1.08;;;17.80;99.90;;;;;;5112265;28;20043;-69
2022/06/01 13:31:06;;;;;;;3.22;1.10;;;17.60;99.90;;;;;;5112040;28;20055;-66
2022/06/01 13:33:40;;;;;;;2.47;1.02;;;18.00;99.90;;;;;;5112235;28;20059;-68
2022/06/01 13:36:25;;;;;;;2.33;0.90;;;17.70;99.90;;;;;;5111960;28;20191;-69
2022/06/01 13:38:59;;;;;;;2.55;1.00;;;17.70;99.90;;;;;;5112188;28;20406;-69